Time;durP1;ratioP1;P1;durP2;ratioP2;P2;SDS_P1;SDS_P2;PMS_P1;PMS_P2;Temp;Humidity;BMP_temperature;BMP_pressure;BME280_temperature;BME280_humidity;BME280_pressure;Samples;Min_cycle;Max_cycle;Signal;HPM_P1;HPM_P2
2022/03/07 00:00:39;;;;;;;67.70;10.90;;;;;;;;;;5092467;28;20295;-67
2022/03/07 00:03:06;;;;;;;69.47;9.88;;;;;;;;;;5092264;28;20682;-67
2022/03/07 00:05:33;;;;;;;67.55;9.50;;;;;;;;;;5091190;28;20230;-68
2022/03/07 00:08:01;;;;;;;68.13;10.25;;;;;;;;;;5088401;28;20228;-67
2022/03/07 00:10:28;;;;;;;67.75;9.50;;;;;;;;;;5092485;28;20204;-69
2022/03/07 00:12:55;;;;;;;69.15;10.07;;;;;;;;;;5092304;28;20299;-70
2022/03/07 00:15:22;;;;;;;67.65;8.90;;;;;;;;;;5092371;28;20311;-68
2022/03/07 00:17:51;;;;;;;65.63;9.60;;;;;;;;;;5091087;28;20201;-70
2022/03/07 00:20:18;;;;;;;68.05;10.45;;;;;;;;;;5092543;28;20214;-68
2022/03/07 00:22:45;;;;;;;67.20;9.75;;;;;;;;;;5091975;28;20692;-68
2022/03/07 00:25:12;;;;;;;65.72;9.48;;;;;;;;;;5092145;28;20220;-67
2022/03/07 00:27:39;;;;;;;65.95;9.27;;;;;;;;;;5091417;28;20218;-68
2022/03/07 00:30:07;;;;;;;67.78;9.00;;;;;;;;;;5091937;28;20219;-68
2022/03/07 00:32:34;;;;;;;67.57;10.18;;;;;;;;;;5091752;28;20211;-69
2022/03/07 00:35:03;;;;;;;66.30;8.70;;;;;;;;;;5092094;28;20337;-68
2022/03/07 00:37:30;;;;;;;67.90;10.57;;;;;;;;;;5091324;28;20204;-69
2022/03/07 00:39:58;;;;;;;68.75;9.13;;;;;;;;;;5074153;28;20205;-68
2022/03/07 00:42:25;;;;;;;65.85;9.90;;;;;;;;;;5071030;28;20205;-69
2022/03/07 00:44:52;;;;;;;67.53;9.35;;;;;;;;;;5071517;28;20205;-69
2022/03/07 00:47:19;;;;;;;68.35;11.20;;;;;;;;;;5070749;28;20213;-68
2022/03/07 00:49:46;;;;;;;68.82;10.63;;;;;;;;;;5071555;28;20224;-69
2022/03/07 00:52:16;;;;;;;65.80;9.85;;;;;;;;;;5071698;28;20201;-68
2022/03/07 00:54:43;;;;;;;66.45;8.82;;;;;;;;;;5071324;28;20215;-68
2022/03/07 00:57:10;;;;;;;69.38;10.00;;;;;;;;;;5070962;28;20626;-69
2022/03/07 00:59:37;;;;;;;68.28;10.23;;;;;;;;;;5071272;28;20205;-67
2022/03/07 01:02:04;;;;;;;64.40;9.05;;;;;;;;;;5071645;28;20211;-69
2022/03/07 01:04:32;;;;;;;66.85;9.88;;;;;;;;;;5071331;28;20295;-68
2022/03/07 01:06:59;;;;;;;64.25;9.43;;;;;;;;;;5071352;28;20235;-68
2022/03/07 01:09:27;;;;;;;66.38;8.35;;;;;;;;;;5070729;28;20604;-68
2022/03/07 01:11:54;;;;;;;64.35;8.65;;;;;;;;;;5070344;28;20296;-68
2022/03/07 01:14:22;;;;;;;67.20;9.10;;;;;;;;;;5071154;28;20296;-69
2022/03/07 01:16:49;;;;;;;66.72;10.43;;;;;;;;;;5068693;28;20231;-70
2022/03/07 01:19:16;;;;;;;66.25;9.82;;;;;;;;;;5070668;28;20296;-69
2022/03/07 01:21:43;;;;;;;65.25;8.40;;;;;;;;;;5071148;28;20205;-69
2022/03/07 01:24:10;;;;;;;65.15;8.73;;;;;;;;;;5071220;28;20213;-68
2022/03/07 01:26:39;;;;;;;69.63;9.15;;;;;;;;;;5071100;28;20225;-69
2022/03/07 01:29:07;;;;;;;65.25;9.68;;;;;;;;;;5070455;28;20327;-68
2022/03/07 01:31:34;;;;;;;67.00;8.80;;;;;;;;;;5071297;28;20209;-68
2022/03/07 01:34:01;;;;;;;65.43;8.60;;;;;;;;;;5071250;28;20209;-70
2022/03/07 01:36:28;;;;;;;65.70;8.57;;;;;;;;;;5071132;28;20229;-69
2022/03/07 01:38:55;;;;;;;66.45;8.50;;;;;;;;;;5070320;28;20677;-70
2022/03/07 01:41:22;;;;;;;66.10;8.60;;;;;;;;;;5070935;28;20219;-69
2022/03/07 01:43:51;;;;;;;62.83;7.45;;;;;;;;;;5071117;28;20300;-69
2022/03/07 01:46:18;;;;;;;66.00;9.55;;;;;;;;;;5071063;28;20229;-68
2022/03/07 01:48:45;;;;;;;66.20;9.10;;;;;;;;;;5078241;28;20228;-68
2022/03/07 01:51:13;;;;;;;64.45;8.60;;;;;;;;;;5091277;28;20204;-69
2022/03/07 01:53:40;;;;;;;65.03;7.70;;;;;;;;;;5091037;28;20226;-69
2022/03/07 01:56:08;;;;;;;63.85;8.55;;;;;;;;;;5094129;28;20343;-68
2022/03/07 01:58:35;;;;;;;67.78;8.60;;;;;;;;;;5094066;28;20291;-68
2022/03/07 02:01:04;;;;;;;65.25;8.65;;;;;;;;;;5094820;28;20295;-69
2022/03/07 02:03:31;;;;;;;69.60;8.52;;;;;;;;;;5094625;28;20201;-68
2022/03/07 02:05:58;;;;;;;67.70;8.93;;;;;;;;;;5094699;28;20319;-70
2022/03/07 02:08:26;;;;;;;65.90;9.52;;;;;;;;;;5093646;28;20216;-66
2022/03/07 02:10:53;;;;;;;63.42;8.65;;;;;;;;;;5094977;28;20212;-66
2022/03/07 02:13:21;;;;;;;66.28;8.27;;;;;;;;;;5094575;28;20295;-66
2022/03/07 02:15:53;;;;;;;64.38;8.88;;;;;;;;;;5094436;28;20315;-68
2022/03/07 02:18:22;;;;;;;65.50;8.77;;;;;;;;;;5093672;28;20207;-70
2022/03/07 02:20:53;;;;;;;62.63;8.32;;;;;;;;;;5090977;28;20208;-69
2022/03/07 02:23:21;;;;;;;66.38;8.98;;;;;;;;;;5094180;28;20295;-67
2022/03/07 02:25:48;;;;;;;65.82;9.70;;;;;;;;;;5094403;28;20616;-69
2022/03/07 02:28:16;;;;;;;65.72;9.00;;;;;;;;;;5088993;28;20325;-68
2022/03/07 02:30:43;;;;;;;66.13;9.40;;;;;;;;;;5093952;28;20295;-68
2022/03/07 02:33:12;;;;;;;68.38;10.00;;;;;;;;;;5094283;28;20294;-68
2022/03/07 02:35:40;;;;;;;67.70;10.38;;;;;;;;;;5094295;28;20277;-68
2022/03/07 02:38:13;;;;;;;69.15;10.27;;;;;;;;;;5093368;28;20662;-68
2022/03/07 02:40:41;;;;;;;65.90;8.85;;;;;;;;;;5094464;28;20548;-69
2022/03/07 02:43:08;;;;;;;68.32;9.55;;;;;;;;;;5093733;28;20212;-68
2022/03/07 02:45:36;;;;;;;67.07;9.75;;;;;;;;;;5094297;28;20230;-68
2022/03/07 02:48:03;;;;;;;68.47;9.60;;;;;;;;;;5093159;28;20211;-68
2022/03/07 02:50:30;;;;;;;66.38;10.45;;;;;;;;;;5093687;28;20227;-68
2022/03/07 02:52:57;;;;;;;68.63;10.88;;;;;;;;;;5076457;28;20209;-70
2022/03/07 02:55:25;;;;;;;66.43;9.90;;;;;;;;;;5073387;28;20236;-68
2022/03/07 02:57:53;;;;;;;68.53;10.30;;;;;;;;;;5072738;28;20201;-68
2022/03/07 03:00:20;;;;;;;67.00;9.57;;;;;;;;;;5073676;28;20297;-68
2022/03/07 03:02:47;;;;;;;68.55;10.82;;;;;;;;;;5073539;28;20200;-70
2022/03/07 03:05:15;;;;;;;67.35;9.75;;;;;;;;;;5072936;28;20236;-68
2022/03/07 03:07:42;;;;;;;68.53;8.90;;;;;;;;;;5072728;28;20744;-69
2022/03/07 03:10:13;;;;;;;67.68;9.88;;;;;;;;;;5073374;28;20225;-68
2022/03/07 03:12:40;;;;;;;67.55;10.45;;;;;;;;;;5073226;28;20213;-68
2022/03/07 03:15:10;;;;;;;66.00;9.15;;;;;;;;;;5073164;28;20235;-68
2022/03/07 03:17:39;;;;;;;68.15;10.30;;;;;;;;;;5072318;28;20292;-68
2022/03/07 03:20:07;;;;;;;66.85;10.88;;;;;;;;;;5073025;28;20296;-69
2022/03/07 03:22:34;;;;;;;70.80;11.05;;;;;;;;;;5071775;28;20208;-68
2022/03/07 03:25:01;;;;;;;66.85;10.95;;;;;;;;;;5083699;28;20309;-68
2022/03/07 03:27:28;;;;;;;70.68;10.85;;;;;;;;;;5092501;28;20243;-70
2022/03/07 03:29:55;;;;;;;67.30;9.02;;;;;;;;;;5093279;28;20235;-68
2022/03/07 03:32:24;;;;;;;67.60;9.80;;;;;;;;;;5092960;28;20665;-69
2022/03/07 03:34:52;;;;;;;66.82;10.18;;;;;;;;;;5093035;28;20253;-68
2022/03/07 03:37:19;;;;;;;71.10;10.15;;;;;;;;;;5092181;28;20680;-68
2022/03/07 03:39:46;;;;;;;68.85;10.55;;;;;;;;;;5093064;28;20218;-67
2022/03/07 03:42:13;;;;;;;67.03;11.30;;;;;;;;;;5092999;28;20204;-68
2022/03/07 03:44:40;;;;;;;71.72;10.55;;;;;;;;;;5092805;28;20588;-68
2022/03/07 03:47:07;;;;;;;70.20;10.60;;;;;;;;;;5092615;28;20227;-68
2022/03/07 03:49:36;;;;;;;70.50;11.20;;;;;;;;;;5092466;28;20787;-68
2022/03/07 03:52:03;;;;;;;69.47;11.48;;;;;;;;;;5092512;28;20581;-69
2022/03/07 03:54:31;;;;;;;69.45;10.35;;;;;;;;;;5092518;28;20291;-68
2022/03/07 03:56:58;;;;;;;69.50;10.20;;;;;;;;;;5077760;28;20225;-67
2022/03/07 03:59:25;;;;;;;67.93;11.15;;;;;;;;;;5071638;28;20244;-70
2022/03/07 04:01:52;;;;;;;71.28;11.57;;;;;;;;;;5072507;28;20247;-68
2022/03/07 04:04:19;;;;;;;67.40;9.82;;;;;;;;;;5071841;28;20212;-70
2022/03/07 04:06:48;;;;;;;71.72;11.38;;;;;;;;;;5072384;28;20220;-68
2022/03/07 04:09:18;;;;;;;70.82;11.40;;;;;;;;;;5071152;28;20282;-68
2022/03/07 04:11:45;;;;;;;69.80;11.20;;;;;;;;;;5072338;28;20376;-70
2022/03/07 04:14:13;;;;;;;68.25;10.27;;;;;;;;;;5072084;28;20200;-69
2022/03/07 04:16:40;;;;;;;74.38;11.20;;;;;;;;;;5071510;28;20236;-68
2022/03/07 04:19:08;;;;;;;70.25;10.35;;;;;;;;;;5070637;28;20673;-69
2022/03/07 04:21:35;;;;;;;71.40;10.75;;;;;;;;;;5072044;28;20236;-68
2022/03/07 04:24:04;;;;;;;69.22;11.30;;;;;;;;;;5071752;28;20216;-68
2022/03/07 04:26:31;;;;;;;68.50;11.02;;;;;;;;;;5071536;28;20739;-68
2022/03/07 04:28:59;;;;;;;70.70;11.30;;;;;;;;;;5075125;28;20767;-68
2022/03/07 04:31:27;;;;;;;68.95;10.00;;;;;;;;;;5091871;28;20207;-68
2022/03/07 04:33:54;;;;;;;71.85;10.63;;;;;;;;;;5092012;28;20311;-68
2022/03/07 04:36:21;;;;;;;70.78;11.82;;;;;;;;;;5091818;28;20307;-69
2022/03/07 04:38:49;;;;;;;69.80;10.48;;;;;;;;;;5091567;28;20204;-69
2022/03/07 04:41:17;;;;;;;70.00;11.38;;;;;;;;;;5092181;28;20206;-69
2022/03/07 04:43:44;;;;;;;67.95;11.00;;;;;;;;;;5092464;28;20204;-70
2022/03/07 04:46:12;;;;;;;69.53;11.70;;;;;;;;;;5091952;28;20228;-69
2022/03/07 04:48:39;;;;;;;70.13;10.93;;;;;;;;;;5091100;28;20303;-69
2022/03/07 04:51:06;;;;;;;72.75;12.20;;;;;;;;;;5092326;28;20226;-68
2022/03/07 04:53:34;;;;;;;73.75;12.38;;;;;;;;;;5092024;28;20637;-69
2022/03/07 04:56:01;;;;;;;72.45;12.10;;;;;;;;;;5091891;28;20598;-70
2022/03/07 04:58:29;;;;;;;69.20;12.00;;;;;;;;;;5091151;28;20208;-69
2022/03/07 05:00:56;;;;;;;78.95;12.60;;;;;;;;;;5080405;28;20205;-69
2022/03/07 05:03:24;;;;;;;70.93;11.70;;;;;;;;;;5071660;28;20205;-70
2022/03/07 05:05:51;;;;;;;75.20;11.90;;;;;;;;;;5071634;28;20698;-70
2022/03/07 05:08:19;;;;;;;74.95;12.65;;;;;;;;;;5070893;28;20205;-69
2022/03/07 05:10:46;;;;;;;70.82;11.02;;;;;;;;;;5071302;28;20225;-68
2022/03/07 05:13:13;;;;;;;73.85;13.50;;;;;;;;;;5071146;28;20237;-69
2022/03/07 05:15:41;;;;;;;70.97;12.23;;;;;;;;;;5071329;28;20229;-67
2022/03/07 05:18:09;;;;;;;71.65;12.75;;;;;;;;;;5070486;28;20211;-68
2022/03/07 05:20:36;;;;;;;70.95;11.95;;;;;;;;;;5071608;28;20296;-68
2022/03/07 05:23:04;;;;;;;76.72;13.93;;;;;;;;;;5071256;28;20209;-70
2022/03/07 05:25:31;;;;;;;72.18;13.15;;;;;;;;;;5071247;28;20267;-67
2022/03/07 05:27:58;;;;;;;71.35;11.80;;;;;;;;;;5070556;28;20248;-67
2022/03/07 05:30:25;;;;;;;71.70;13.13;;;;;;;;;;5074422;28;20235;-69
2022/03/07 05:32:55;;;;;;;73.53;13.23;;;;;;;;;;5083727;28;20579;-69
2022/03/07 05:35:23;;;;;;;73.53;13.38;;;;;;;;;;5095464;28;20234;-68
2022/03/07 05:37:51;;;;;;;78.13;13.48;;;;;;;;;;5094735;28;20636;-68
2022/03/07 05:40:19;;;;;;;75.03;13.73;;;;;;;;;;5095081;28;20289;-68
2022/03/07 05:42:46;;;;;;;71.45;13.07;;;;;;;;;;5095240;28;20287;-70
2022/03/07 05:45:14;;;;;;;75.43;13.57;;;;;;;;;;5095045;28;20795;-68
2022/03/07 05:47:41;;;;;;;74.47;14.60;;;;;;;;;;5094342;28;20291;-68
2022/03/07 05:50:11;;;;;;;73.13;12.40;;;;;;;;;;5094929;28;20311;-68
2022/03/07 05:52:38;;;;;;;76.57;13.63;;;;;;;;;;5094862;28;20288;-67
2022/03/07 05:55:05;;;;;;;72.65;12.45;;;;;;;;;;5095204;28;20266;-68
2022/03/07 05:57:33;;;;;;;73.70;12.60;;;;;;;;;;5094600;28;20244;-68
2022/03/07 06:00:00;;;;;;;68.90;12.25;;;;;;;;;;5094992;28;20295;-68
2022/03/07 06:02:28;;;;;;;76.03;13.07;;;;;;;;;;5093700;28;20204;-68
2022/03/07 06:04:55;;;;;;;72.63;12.75;;;;;;;;;;5090900;28;20208;-68
2022/03/07 06:07:23;;;;;;;70.70;11.00;;;;;;;;;;5093953;28;20298;-68
2022/03/07 06:09:50;;;;;;;69.97;10.82;;;;;;;;;;5094696;28;20319;-69
2022/03/07 06:12:18;;;;;;;71.75;11.60;;;;;;;;;;5094681;28;20294;-68
2022/03/07 06:14:45;;;;;;;73.95;11.85;;;;;;;;;;5094467;28;20295;-68
2022/03/07 06:17:12;;;;;;;70.07;10.88;;;;;;;;;;5094073;28;20735;-68
2022/03/07 06:19:39;;;;;;;69.43;11.60;;;;;;;;;;5094279;28;20223;-69
2022/03/07 06:22:06;;;;;;;66.80;10.00;;;;;;;;;;5094528;28;20292;-68
2022/03/07 06:24:35;;;;;;;69.05;10.65;;;;;;;;;;5094365;28;20325;-68
2022/03/07 06:27:02;;;;;;;72.57;11.63;;;;;;;;;;5094314;28;20259;-68
2022/03/07 06:29:29;;;;;;;69.22;10.55;;;;;;;;;;5093553;28;20212;-69
2022/03/07 06:31:57;;;;;;;69.60;10.23;;;;;;;;;;5094204;28;20204;-68
2022/03/07 06:34:24;;;;;;;75.05;12.35;;;;;;;;;;5092960;28;20200;-69
2022/03/07 06:36:51;;;;;;;72.45;12.95;;;;;;;;;;5090977;28;20259;-68
2022/03/07 06:39:19;;;;;;;69.65;11.23;;;;;;;;;;5093520;28;20216;-68
2022/03/07 06:41:47;;;;;;;70.93;11.55;;;;;;;;;;5093216;28;20673;-69
2022/03/07 06:44:14;;;;;;;69.60;11.05;;;;;;;;;;5093897;28;20295;-68
2022/03/07 06:46:41;;;;;;;73.22;13.00;;;;;;;;;;5093826;28;20220;-70
2022/03/07 06:49:08;;;;;;;67.35;10.32;;;;;;;;;;5093139;28;20662;-68
2022/03/07 06:51:37;;;;;;;67.65;9.48;;;;;;;;;;5093983;28;20236;-70
2022/03/07 06:54:05;;;;;;;68.00;10.45;;;;;;;;;;5093824;28;20220;-68
2022/03/07 06:56:32;;;;;;;69.43;10.93;;;;;;;;;;5093526;28;20311;-70
2022/03/07 06:59:00;;;;;;;73.50;13.05;;;;;;;;;;5093076;28;20207;-68
2022/03/07 07:01:27;;;;;;;70.07;10.55;;;;;;;;;;5093410;28;20291;-68
2022/03/07 07:03:55;;;;;;;70.80;10.65;;;;;;;;;;5093656;28;20608;-68
2022/03/07 07:06:22;;;;;;;68.90;11.02;;;;;;;;;;5092752;28;20509;-67
2022/03/07 07:08:49;;;;;;;69.50;10.15;;;;;;;;;;5089452;28;20631;-67
2022/03/07 07:11:16;;;;;;;68.65;9.60;;;;;;;;;;5093322;28;20231;-68
2022/03/07 07:13:43;;;;;;;78.47;11.40;;;;;;;;;;5093278;28;20204;-69
2022/03/07 07:16:12;;;;;;;69.78;10.15;;;;;;;;;;5093041;28;20359;-70
2022/03/07 07:18:39;;;;;;;67.50;9.70;;;;;;;;;;5092723;28;20235;-69
2022/03/07 07:21:06;;;;;;;69.90;9.95;;;;;;;;;;5093494;28;20304;-67
2022/03/07 07:23:34;;;;;;;64.45;8.90;;;;;;;;;;5093222;28;20214;-68
2022/03/07 07:26:01;;;;;;;72.07;9.80;;;;;;;;;;5093100;28;20224;-68
2022/03/07 07:28:28;;;;;;;65.57;8.95;;;;;;;;;;5092240;28;20216;-68
2022/03/07 07:30:55;;;;;;;67.78;9.57;;;;;;;;;;5092864;28;20228;-67
2022/03/07 07:33:24;;;;;;;69.95;9.10;;;;;;;;;;5093078;28;20215;-70
2022/03/07 07:35:51;;;;;;;67.03;9.25;;;;;;;;;;5093031;28;20224;-69
2022/03/07 07:38:19;;;;;;;66.60;9.27;;;;;;;;;;5083858;28;20291;-68
2022/03/07 07:40:46;;;;;;;66.57;10.40;;;;;;;;;;5073064;28;20201;-68
2022/03/07 07:43:13;;;;;;;69.45;9.60;;;;;;;;;;5072277;28;20204;-70
2022/03/07 07:45:40;;;;;;;65.10;9.10;;;;;;;;;;5072703;28;20237;-67
2022/03/07 07:48:07;;;;;;;70.00;9.65;;;;;;;;;;5071666;28;20681;-69
2022/03/07 07:50:36;;;;;;;69.47;10.07;;;;;;;;;;5072391;28;20217;-67
2022/03/07 07:53:03;;;;;;;70.90;10.63;;;;;;;;;;5072250;28;20215;-68
2022/03/07 07:55:30;;;;;;;67.18;9.60;;;;;;;;;;5072238;28;20263;-68
2022/03/07 07:57:57;;;;;;;70.82;10.07;;;;;;;;;;5071464;28;20300;-70
2022/03/07 08:00:24;;;;;;;65.57;9.15;;;;;;;;;;5072318;28;20207;-68
2022/03/07 08:02:52;;;;;;;67.75;9.10;;;;;;;;;;5072085;28;20212;-69
2022/03/07 08:05:20;;;;;;;68.63;9.90;;;;;;;;;;5072129;28;20227;-68
2022/03/07 08:07:49;;;;;;;66.63;9.25;;;;;;;;;;5071354;28;20204;-68
2022/03/07 08:10:16;;;;;;;68.78;10.15;;;;;;;;;;5079086;28;20212;-70
2022/03/07 08:12:44;;;;;;;66.63;9.65;;;;;;;;;;5092340;28;20211;-68
2022/03/07 08:15:12;;;;;;;65.43;9.07;;;;;;;;;;5092412;28;20324;-68
2022/03/07 08:17:40;;;;;;;69.28;10.23;;;;;;;;;;5091746;28;20547;-68
2022/03/07 08:20:08;;;;;;;70.00;10.68;;;;;;;;;;5092396;28;20231;-68
2022/03/07 08:22:35;;;;;;;68.97;10.30;;;;;;;;;;5092256;28;20239;-68
2022/03/07 08:25:04;;;;;;;67.32;9.93;;;;;;;;;;5092144;28;20306;-69
2022/03/07 08:27:32;;;;;;;67.40;9.70;;;;;;;;;;5091534;28;20208;-68
2022/03/07 08:30:00;;;;;;;68.88;10.38;;;;;;;;;;5092143;28;20239;-68
2022/03/07 08:32:27;;;;;;;71.47;11.25;;;;;;;;;;5092093;28;20200;-68
2022/03/07 08:34:57;;;;;;;70.18;11.00;;;;;;;;;;5092079;28;20234;-68
2022/03/07 08:37:24;;;;;;;67.28;9.02;;;;;;;;;;5091087;28;20200;-68
2022/03/07 08:39:51;;;;;;;69.22;10.95;;;;;;;;;;5091160;28;20215;-68
2022/03/07 08:42:20;;;;;;;68.85;10.75;;;;;;;;;;5071682;28;20291;-67
2022/03/07 08:44:47;;;;;;;67.63;9.43;;;;;;;;;;5071631;28;20209;-69
2022/03/07 08:47:14;;;;;;;69.50;10.50;;;;;;;;;;5070985;28;20634;-67
2022/03/07 08:49:41;;;;;;;70.07;11.15;;;;;;;;;;5071662;28;20681;-68
2022/03/07 08:52:09;;;;;;;66.18;10.30;;;;;;;;;;5071428;28;20324;-66
2022/03/07 08:54:36;;;;;;;69.60;10.82;;;;;;;;;;5071690;28;20205;-67
2022/03/07 08:57:03;;;;;;;68.53;10.68;;;;;;;;;;5071624;28;20680;-68
2022/03/07 08:59:32;;;;;;;71.93;10.20;;;;;;;;;;5071098;28;20467;-68
2022/03/07 09:01:59;;;;;;;71.65;10.30;;;;;;;;;;5072013;28;20292;-68
2022/03/07 09:04:26;;;;;;;68.22;10.32;;;;;;;;;;5073655;28;20689;-67
2022/03/07 09:06:54;;;;;;;66.75;9.98;;;;;;;;;;5075509;28;20220;-69
2022/03/07 09:09:21;;;;;;;70.05;10.50;;;;;;;;;;5074966;28;20215;-68
2022/03/07 09:11:48;;;;;;;68.55;11.57;;;;;;;;;;5074251;28;20227;-68
2022/03/07 09:14:16;;;;;;;71.45;10.77;;;;;;;;;;5095536;28;20231;-69
2022/03/07 09:16:45;;;;;;;71.40;9.60;;;;;;;;;;5095400;28;20281;-68
2022/03/07 09:19:12;;;;;;;69.78;10.60;;;;;;;;;;5094941;28;20756;-69
2022/03/07 09:21:39;;;;;;;70.43;10.25;;;;;;;;;;5095795;28;20201;-68
2022/03/07 09:24:07;;;;;;;70.93;10.20;;;;;;;;;;5095489;28;20219;-67
2022/03/07 09:26:34;;;;;;;71.13;10.90;;;;;;;;;;5095439;28;20226;-70
2022/03/07 09:29:01;;;;;;;68.22;10.75;;;;;;;;;;5094728;28;20315;-68
2022/03/07 09:31:28;;;;;;;69.65;10.18;;;;;;;;;;5095084;28;20314;-68
2022/03/07 09:33:57;;;;;;;68.30;10.05;;;;;;;;;;5095478;28;20208;-68
2022/03/07 09:36:24;;;;;;;70.47;10.13;;;;;;;;;;5095363;28;20224;-70
2022/03/07 09:38:52;;;;;;;69.47;10.70;;;;;;;;;;5094535;28;20303;-67
2022/03/07 09:41:19;;;;;;;71.55;10.68;;;;;;;;;;5094355;28;20567;-67
2022/03/07 09:43:47;;;;;;;67.70;9.60;;;;;;;;;;5091537;28;20236;-68
2022/03/07 09:46:15;;;;;;;69.07;10.38;;;;;;;;;;5094801;28;20736;-69
2022/03/07 09:48:42;;;;;;;69.15;10.43;;;;;;;;;;5094530;28;20577;-68
2022/03/07 09:51:11;;;;;;;67.82;10.25;;;;;;;;;;5094884;28;20743;-68
2022/03/07 09:53:39;;;;;;;68.97;10.68;;;;;;;;;;5094946;28;20204;-70
2022/03/07 09:56:06;;;;;;;69.65;11.15;;;;;;;;;;5095255;28;20262;-68
2022/03/07 09:58:33;;;;;;;69.18;10.27;;;;;;;;;;5093871;28;20208;-69
2022/03/07 10:01:08;;;;;;;68.10;10.65;;;;;;;;;;5094950;28;20295;-68
2022/03/07 10:03:35;;;;;;;72.65;11.98;;;;;;;;;;5094829;28;20203;-69
2022/03/07 10:06:02;;;;;;;69.78;10.43;;;;;;;;;;5094832;28;20609;-68
2022/03/07 10:08:31;;;;;;;66.32;9.85;;;;;;;;;;5093991;28;20204;-68
2022/03/07 10:10:58;;;;;;;70.28;10.90;;;;;;;;;;5094651;28;20310;-68
2022/03/07 10:13:27;;;;;;;67.88;10.95;;;;;;;;;;5094736;28;20208;-68
2022/03/07 10:15:58;;;;;;;67.45;9.63;;;;;;;;;;5090152;28;20231;-68
2022/03/07 10:18:26;;;;;;;69.25;10.57;;;;;;;;;;5094050;28;20606;-69
2022/03/07 10:20:54;;;;;;;69.25;10.40;;;;;;;;;;5094435;28;20295;-70
2022/03/07 10:23:22;;;;;;;69.97;10.68;;;;;;;;;;5094560;28;20212;-69
2022/03/07 10:25:50;;;;;;;68.77;10.23;;;;;;;;;;5094668;28;20255;-68
2022/03/07 10:28:17;;;;;;;68.27;11.03;;;;;;;;;;5093665;28;20553;-70
2022/03/07 10:30:45;;;;;;;66.97;10.10;;;;;;;;;;5094472;28;20847;-68
2022/03/07 10:33:13;;;;;;;65.53;9.43;;;;;;;;;;5094288;28;20533;-69
2022/03/07 10:35:42;;;;;;;71.50;10.23;;;;;;;;;;5094222;28;20466;-69
2022/03/07 10:38:11;;;;;;;68.20;10.70;;;;;;;;;;5093105;28;20480;-68
2022/03/07 10:40:40;;;;;;;68.93;10.37;;;;;;;;;;5094331;28;20883;-71
2022/03/07 10:43:09;;;;;;;71.03;10.50;;;;;;;;;;5093935;28;20456;-69
2022/03/07 10:45:45;;;;;;;66.17;10.33;;;;;;;;;;5092873;28;20891;-69
2022/03/07 10:48:12;;;;;;;84.80;10.13;;;;;;;;;;5090321;28;20570;-70
2022/03/07 10:50:42;;;;;;;67.80;11.00;;;;;;;;;;5093651;28;20464;-69
2022/03/07 10:53:09;;;;;;;67.70;9.77;;;;;;;;;;5093792;28;20484;-69
2022/03/07 10:55:37;;;;;;;71.83;10.30;;;;;;;;;;5093812;28;20458;-71
2022/03/07 10:58:10;;;;;;;71.10;10.13;;;;;;;;;;5093197;28;20537;-70
2022/03/07 11:00:48;;;;;;;67.80;10.37;;;;;;;;;;5093840;28;20447;-69
2022/03/07 11:03:19;;;;;;;67.07;10.40;;;;;;;;;;5093486;28;20440;-69
2022/03/07 11:05:46;;;;;;;68.90;11.27;;;;;;;;;;5093657;28;20464;-69
2022/03/07 11:08:15;;;;;;;67.90;10.50;;;;;;;;;;5092762;28;20436;-69
2022/03/07 11:10:45;;;;;;;68.97;10.57;;;;;;;;;;5093725;28;20445;-69
2022/03/07 11:13:13;;;;;;;67.77;10.57;;;;;;;;;;5093418;28;21004;-69
2022/03/07 11:15:41;;;;;;;67.10;10.37;;;;;;;;;;5093064;28;20888;-70
2022/03/07 11:18:10;;;;;;;66.43;9.50;;;;;;;;;;5092717;28;20457;-68
2022/03/07 11:20:37;;;;;;;66.50;9.10;;;;;;;;;;5078046;28;20542;-69
2022/03/07 11:23:05;;;;;;;65.17;9.03;;;;;;;;;;5073029;28;20443;-68
2022/03/07 11:25:32;;;;;;;68.77;10.43;;;;;;;;;;5073025;28;20467;-69
2022/03/07 11:27:59;;;;;;;68.30;9.47;;;;;;;;;;5071524;28;20958;-69
2022/03/07 11:30:34;;;;;;;66.07;9.37;;;;;;;;;;5072984;28;20446;-69
2022/03/07 11:33:08;;;;;;;66.30;10.07;;;;;;;;;;5072794;28;20489;-69
2022/03/07 11:35:36;;;;;;;68.00;9.90;;;;;;;;;;5072693;28;20839;-69
2022/03/07 11:38:11;;;;;;;64.97;9.63;;;;;;;;;;5072042;28;20557;-69
2022/03/07 11:40:39;;;;;;;69.10;10.93;;;;;;;;;;5072491;28;20428;-69
2022/03/07 11:43:08;;;;;;;66.07;9.40;;;;;;;;;;5072749;28;20529;-69
2022/03/07 11:45:39;;;;;;;66.87;10.30;;;;;;;;;;5072407;28;20550;-69
2022/03/07 11:48:13;;;;;;;67.60;10.17;;;;;;;;;;5071645;28;20451;-69
2022/03/07 11:50:40;;;;;;;66.67;10.07;;;;;;;;;;5072480;28;20453;-70
2022/03/07 11:53:07;;;;;;;65.17;9.60;;;;;;;;;;5069104;28;20479;-69
2022/03/07 11:55:43;;;;;;;65.70;10.07;;;;;;;;;;5072197;28;20499;-68
2022/03/07 11:58:10;;;;;;;67.60;10.77;;;;;;;;;;5071529;28;20446;-70
2022/03/07 12:00:39;;;;;;;66.50;10.70;;;;;;;;;;5072284;28;20534;-69
2022/03/07 12:03:11;;;;;;;66.27;9.80;;;;;;;;;;5072044;28;20447;-70
2022/03/07 12:05:38;;;;;;;66.30;10.30;;;;;;;;;;5071809;28;20463;-69
2022/03/07 12:08:12;;;;;;;70.13;10.40;;;;;;;;;;5071631;28;20541;-66
2022/03/07 12:10:41;;;;;;;66.27;10.40;;;;;;;;;;5072336;28;20458;-69
2022/03/07 12:13:12;;;;;;;66.83;10.30;;;;;;;;;;5071925;28;20478;-68
2022/03/07 12:15:48;;;;;;;65.77;9.73;;;;;;;;;;5072088;28;20467;-69
2022/03/07 12:18:15;;;;;;;65.80;10.23;;;;;;;;;;5071022;28;20453;-67
2022/03/07 12:20:52;;;;;;;66.80;10.27;;;;;;;;;;5071808;28;20517;-67
2022/03/07 12:23:21;;;;;;;65.10;9.77;;;;;;;;;;5068237;28;20592;-67
2022/03/07 12:25:48;;;;;;;67.50;10.10;;;;;;;;;;5071863;28;20470;-67
2022/03/07 12:28:15;;;;;;;66.27;9.90;;;;;;;;;;5071064;28;20825;-67
2022/03/07 12:30:42;;;;;;;63.27;9.60;;;;;;;;;;5071693;28;20883;-69
2022/03/07 12:33:11;;;;;;;65.97;9.63;;;;;;;;;;5071824;28;20486;-67
2022/03/07 12:35:39;;;;;;;64.50;9.00;;;;;;;;;;5071999;28;20468;-68
2022/03/07 12:38:09;;;;;;;64.77;9.57;;;;;;;;;;5070452;28;20444;-68
2022/03/07 12:40:37;;;;;;;64.70;9.40;;;;;;;;;;5071681;28;20950;-67
2022/03/07 12:43:05;;;;;;;66.10;10.40;;;;;;;;;;5071585;28;20448;-67
2022/03/07 12:45:33;;;;;;;65.40;10.47;;;;;;;;;;5071643;28;20985;-68
2022/03/07 12:48:01;;;;;;;64.27;9.37;;;;;;;;;;5071202;28;20447;-67
2022/03/07 12:50:32;;;;;;;66.70;9.90;;;;;;;;;;5071727;28;20461;-67
2022/03/07 12:52:59;;;;;;;65.10;9.63;;;;;;;;;;5071537;28;20546;-68
2022/03/07 12:55:26;;;;;;;66.53;10.60;;;;;;;;;;5078460;28;20470;-68
2022/03/07 12:57:57;;;;;;;67.63;9.30;;;;;;;;;;5090932;28;20454;-68
2022/03/07 13:00:24;;;;;;;65.17;9.13;;;;;;;;;;5092173;28;20450;-68
2022/03/07 13:02:54;;;;;;;64.10;9.40;;;;;;;;;;5091761;28;20446;-68
2022/03/07 13:05:23;;;;;;;64.87;9.70;;;;;;;;;;5091850;28;20846;-67
2022/03/07 13:07:59;;;;;;;65.40;9.77;;;;;;;;;;5090819;28;20457;-68
2022/03/07 13:10:26;;;;;;;64.37;8.93;;;;;;;;;;5091855;28;20502;-68
2022/03/07 13:12:54;;;;;;;65.60;10.30;;;;;;;;;;5091788;28;20483;-68
2022/03/07 13:15:21;;;;;;;66.77;10.77;;;;;;;;;;5091574;28;20473;-68
2022/03/07 13:17:57;;;;;;;64.80;9.40;;;;;;;;;;5091084;28;20536;-67
2022/03/07 13:20:25;;;;;;;66.40;10.00;;;;;;;;;;5091588;28;20964;-69
2022/03/07 13:22:52;;;;;;;65.20;9.67;;;;;;;;;;5091327;28;20788;-69
2022/03/07 13:25:21;;;;;;;64.40;9.77;;;;;;;;;;5091632;28;20480;-69
2022/03/07 13:27:48;;;;;;;65.70;11.13;;;;;;;;;;5089941;28;20451;-68
2022/03/07 13:30:16;;;;;;;66.57;11.47;;;;;;;;;;5091638;28;20537;-68
2022/03/07 13:32:43;;;;;;;65.07;10.70;;;;;;;;;;5070264;28;20479;-68
2022/03/07 13:35:21;;;;;;;66.13;11.00;;;;;;;;;;5070962;28;20557;-69
2022/03/07 13:37:48;;;;;;;65.43;10.40;;;;;;;;;;5070596;28;20542;-67
2022/03/07 13:40:16;;;;;;;72.37;11.90;;;;;;;;;;5071199;28;20530;-68
2022/03/07 13:42:46;;;;;;;65.30;10.53;;;;;;;;;;5071112;28;20450;-68
2022/03/07 13:45:14;;;;;;;66.60;10.27;;;;;;;;;;5071036;28;20488;-68
2022/03/07 13:47:42;;;;;;;66.70;11.40;;;;;;;;;;5070208;28;20448;-69
2022/03/07 13:50:10;;;;;;;68.33;10.80;;;;;;;;;;5073237;28;20531;-69
2022/03/07 13:52:38;;;;;;;65.57;8.83;;;;;;;;;;5074751;28;20671;-69
2022/03/07 13:55:06;;;;;;;66.10;10.90;;;;;;;;;;5074540;28;20565;-70
2022/03/07 13:57:34;;;;;;;65.60;10.60;;;;;;;;;;5073227;28;20449;-67
2022/03/07 14:00:06;;;;;;;66.20;11.20;;;;;;;;;;5074546;28;20450;-67
2022/03/07 14:02:37;;;;;;;66.80;11.20;;;;;;;;;;5075854;28;20490;-69
2022/03/07 14:05:04;;;;;;;67.33;11.73;;;;;;;;;;5094860;28;20899;-66
2022/03/07 14:07:32;;;;;;;67.30;10.40;;;;;;;;;;5093949;28;20451;-68
2022/03/07 14:10:02;;;;;;;66.00;10.17;;;;;;;;;;5094460;28;20451;-67
2022/03/07 14:12:31;;;;;;;66.70;10.53;;;;;;;;;;5094448;28;20934;-67
2022/03/07 14:15:04;;;;;;;64.97;9.53;;;;;;;;;;5094490;28;20942;-67
2022/03/07 14:17:31;;;;;;;65.27;10.10;;;;;;;;;;5094064;28;20832;-68
2022/03/07 14:19:58;;;;;;;65.80;11.00;;;;;;;;;;5094600;28;20536;-66
2022/03/07 14:22:26;;;;;;;64.73;9.97;;;;;;;;;;5094929;28;20609;-68
2022/03/07 14:24:54;;;;;;;63.90;9.93;;;;;;;;;;5094327;28;20445;-68